Atlantic Clover — 3FVD6 — position and weather

sailwx.info

Track history (hours):
 
Tides and Currents Weather Stations Pressure Air Temp Water Temp Dewpoint Dewpoint Depression Visibility Wind Speed Wind Dir Waves Ship Positions

Atlantic Clover

Last reported at 2017-Jan-31 20:33 UTC. Time now 2017-Feb-25 07:25 UTC.
Position N 01°15' E 104°01'.
Warning: this ship's position is 24 days out of date.

Length 180 m; draft 8.7 m.

Type: Cargo ship. MMSI: 371263000.

Date/timePositionNaut miles runAvg speedWind from/ knotsBaromVisibWave heightAir tempDewpointWater temp
2017-Jan-31 20:33N 01°15' E 104°01'3 2.6
2017-Jan-31 19:32N 01°18' E 103°59'0 0.0
2017-Jan-31 17:32N 01°18' E 103°59'0 0.0
2017-Jan-31 15:32N 01°18' E 103°59'0 0.0
2017-Jan-31 14:05N 01°17' E 103°59'0 0.1
2017-Jan-31 13:29N 01°17' E 103°59'0 0.1
2017-Jan-31 12:32N 01°18' E 103°59'0 0.0
2017-Jan-31 11:26N 01°18' E 103°59'0 0.0
2017-Jan-31 10:23N 01°18' E 103°59'0 0.1
2017-Jan-31 09:32N 01°17' E 103°59'4 3.7
2017-Jan-31 08:34N 01°14' E 103°58'1110.3
2017-Jan-31 07:32N 01°09' E 103°48'87 9.4
2017-Jan-30 22:17N 01°45' E 102°29'911.9
2017-Jan-30 21:31N 01°50' E 102°21'  
Track history (hours):
 
Tides and Currents Weather Stations Pressure Air Temp Water Temp Dewpoint Dewpoint Depression Visibility Wind Speed Wind Dir Waves Ship Positions

Atlantic Clover

Last reported at 2017-Jan-31 20:33 UTC. Time now 2017-Feb-25 07:25 UTC.
Position N 01°15' E 104°01'.
Warning: this ship's position is 24 days out of date.

Length 180 m; draft 8.7 m.

Type: Cargo ship. MMSI: 371263000.

Date/timePositionNaut miles runAvg speedWind from/ knotsBaromVisibWave heightAir tempDewpointWater temp
2017-Jan-31 20:33N 01°15' E 104°01'3 2.6
2017-Jan-31 19:32N 01°18' E 103°59'0 0.0
2017-Jan-31 17:32N 01°18' E 103°59'0 0.0
2017-Jan-31 15:32N 01°18' E 103°59'0 0.0
2017-Jan-31 14:05N 01°17' E 103°59'0 0.1
2017-Jan-31 13:29N 01°17' E 103°59'0 0.1
2017-Jan-31 12:32N 01°18' E 103°59'0 0.0
2017-Jan-31 11:26N 01°18' E 103°59'0 0.0
2017-Jan-31 10:23N 01°18' E 103°59'0 0.1
2017-Jan-31 09:32N 01°17' E 103°59'4 3.7
2017-Jan-31 08:34N 01°14' E 103°58'1110.3
2017-Jan-31 07:32N 01°09' E 103°48'87 9.4
2017-Jan-30 22:17N 01°45' E 102°29'911.9
2017-Jan-30 21:31N 01°50' E 102°21'  

Dump ship's entire track history